createdAt,value
2022-08-31T00:02:42.176Z,101566.28
2022-08-31T00:05:11.655Z,101564.53
2022-08-31T00:07:40.293Z,101567.69
2022-08-31T00:10:18.629Z,101567.03
2022-08-31T00:12:49.881Z,101569.47
2022-08-31T00:15:20.649Z,101574.34
2022-08-31T00:17:53.939Z,101570.41
2022-08-31T00:20:34.225Z,101560.72
2022-08-31T00:23:03.731Z,101559.91
2022-08-31T00:25:34.374Z,101555.75
2022-08-31T00:28:03.177Z,101548.50
2022-08-31T00:30:32.109Z,101552.06
2022-08-31T00:33:00.264Z,101558.53
2022-08-31T00:35:29.271Z,101556.50
2022-08-31T00:37:58.204Z,101558.25
2022-08-31T00:40:27.487Z,101559.84
2022-08-31T00:42:57.621Z,101559.34
2022-08-31T00:45:25.787Z,101550.19
2022-08-31T00:47:57.740Z,101547.75
2022-08-31T00:50:26.714Z,101546.25
2022-08-31T00:52:57.809Z,101538.28
2022-08-31T00:55:31.207Z,101539.88
2022-08-31T00:58:03.943Z,101532.25
2022-08-31T01:00:32.726Z,101542.38
2022-08-31T01:03:03.669Z,101539.06
2022-08-31T01:05:32.849Z,101541.53
2022-08-31T01:08:02.107Z,101537.38
2022-08-31T01:10:34.508Z,101546.78
2022-08-31T01:13:04.548Z,101543.63
2022-08-31T01:15:33.587Z,101551.09
2022-08-31T01:18:05.273Z,101552.81
2022-08-31T01:20:48.867Z,101548.47
2022-08-31T01:23:23.468Z,101558.75
2022-08-31T01:25:54.853Z,101555.28
2022-08-31T01:28:23.261Z,101551.97
2022-08-31T01:31:02.316Z,101554.59
2022-08-31T01:33:33.403Z,101552.69
2022-08-31T01:36:01.743Z,101555.81
2022-08-31T01:38:32.713Z,101561.91
2022-08-31T01:41:02.506Z,101550.84
2022-08-31T01:43:33.882Z,101550.47
2022-08-31T01:46:02.508Z,101562.28
2022-08-31T01:48:31.243Z,101567.53
2022-08-31T01:50:59.474Z,101568.91
2022-08-31T01:53:27.878Z,101566.81
2022-08-31T01:55:57.576Z,101569.94
2022-08-31T01:58:25.679Z,101563.38
2022-08-31T02:01:32.942Z,101571.16
2022-08-31T02:04:00.831Z,101570.78
2022-08-31T02:06:29.015Z,101576.69
2022-08-31T02:08:56.982Z,101575.13
2022-08-31T02:11:26.362Z,101572.69
2022-08-31T02:13:54.648Z,101575.84
2022-08-31T02:16:22.768Z,101573.38
2022-08-31T02:18:50.976Z,101574.59
2022-08-31T02:21:19.223Z,101576.84
2022-08-31T02:23:47.389Z,101578.06
2022-08-31T02:26:15.436Z,101581.69
2022-08-31T02:28:47.951Z,101580.84
2022-08-31T02:31:16.565Z,101579.25
2022-08-31T02:33:52.281Z,101589.69
2022-08-31T02:36:22.933Z,101579.63
2022-08-31T02:38:52.579Z,101584.47
2022-08-31T02:41:21.034Z,101576.16
2022-08-31T02:43:51.192Z,101585.16
2022-08-31T02:46:19.854Z,101585.50
2022-08-31T02:48:57.854Z,101581.84
2022-08-31T02:51:26.348Z,101577.53
2022-08-31T02:53:54.261Z,101586.53
2022-08-31T02:56:23.829Z,101591.22
2022-08-31T02:58:55.290Z,101589.31
2022-08-31T03:01:26.498Z,101583.09
2022-08-31T03:03:54.707Z,101582.88
2022-08-31T03:06:23.838Z,101582.88
2022-08-31T03:08:52.029Z,101581.00
2022-08-31T03:11:20.530Z,101577.34
2022-08-31T03:13:48.873Z,101581.00
2022-08-31T03:16:19.024Z,101576.16
2022-08-31T03:18:48.761Z,101584.63
2022-08-31T03:21:17.119Z,101583.59
2022-08-31T03:23:46.152Z,101584.47
2022-08-31T03:26:14.613Z,101583.44
2022-08-31T03:28:43.176Z,101587.06
2022-08-31T03:31:38.992Z,101578.75
2022-08-31T03:34:07.439Z,101578.91
2022-08-31T03:36:35.543Z,101585.34
2022-08-31T03:39:03.862Z,101578.03
2022-08-31T03:41:32.189Z,101580.81
2022-08-31T03:44:02.008Z,101581.84
2022-08-31T03:46:33.831Z,101578.22
2022-08-31T03:49:07.699Z,101576.47
2022-08-31T03:51:37.171Z,101570.25
2022-08-31T03:54:05.802Z,101578.56
2022-08-31T03:56:35.471Z,101576.66
2022-08-31T03:59:04.195Z,101574.22
2022-08-31T04:01:50.616Z,101574.56
2022-08-31T04:04:38.533Z,101581.84
2022-08-31T04:07:25.426Z,101583.25
2022-08-31T04:10:12.838Z,101586.34
2022-08-31T04:13:01.282Z,101584.59
2022-08-31T04:15:48.561Z,101587.38
2022-08-31T04:18:35.536Z,101591.19
2022-08-31T04:21:06.028Z,101587.22
2022-08-31T04:23:34.078Z,101583.72
2022-08-31T04:26:02.100Z,101582.88
2022-08-31T04:28:30.057Z,101583.91
2022-08-31T04:30:58.169Z,101586.66
2022-08-31T04:33:26.273Z,101579.59
2022-08-31T04:35:54.172Z,101585.28
2022-08-31T04:38:23.506Z,101588.78
2022-08-31T04:40:52.570Z,101585.63
2022-08-31T04:43:20.650Z,101585.09
2022-08-31T04:45:52.463Z,101590.09
2022-08-31T04:48:20.450Z,101595.78
2022-08-31T04:50:50.716Z,101588.84
2022-08-31T04:53:19.171Z,101593.69
2022-08-31T04:55:48.634Z,101594.03
2022-08-31T04:58:20.441Z,101587.25
2022-08-31T05:00:48.393Z,101585.88
2022-08-31T05:03:45.555Z,101591.88
2022-08-31T05:06:17.933Z,101599.16
2022-08-31T05:08:46.105Z,101597.22
2022-08-31T05:11:23.018Z,101604.34
2022-08-31T05:13:53.736Z,101592.72
2022-08-31T05:16:22.082Z,101592.00
2022-08-31T05:18:51.402Z,101594.78
2022-08-31T05:21:27.513Z,101603.97
2022-08-31T05:23:57.379Z,101606.94
2022-08-31T05:26:33.452Z,101593.91
2022-08-31T05:29:03.941Z,101604.31
2022-08-31T05:31:36.060Z,101607.25
2022-08-31T05:34:04.653Z,101607.25
2022-08-31T05:36:38.634Z,101594.44
2022-08-31T05:39:09.370Z,101604.63
2022-08-31T05:41:40.138Z,101609.31
2022-08-31T05:44:08.884Z,101610.34
2022-08-31T05:46:38.634Z,101607.72
2022-08-31T05:49:09.359Z,101611.38
2022-08-31T05:51:40.029Z,101604.59
2022-08-31T05:54:10.828Z,101608.22
2022-08-31T05:56:42.990Z,101612.91
2022-08-31T05:59:12.751Z,101604.75
2022-08-31T06:01:42.364Z,101611.66
2022-08-31T06:04:13.635Z,101604.56
2022-08-31T06:06:43.100Z,101604.41
2022-08-31T06:09:17.095Z,101607.81
2022-08-31T06:11:48.203Z,101604.00
2022-08-31T06:14:20.553Z,101606.59
2022-08-31T06:16:50.295Z,101611.13
2022-08-31T06:19:21.589Z,101610.41
2022-08-31T06:21:51.364Z,101613.03
2022-08-31T06:24:24.014Z,101608.34
2022-08-31T06:26:58.805Z,101614.59
2022-08-31T06:29:31.838Z,101617.38
2022-08-31T06:32:10.144Z,101605.41
2022-08-31T06:34:48.416Z,101611.66
2022-08-31T06:37:36.464Z,101615.47
2022-08-31T06:40:18.283Z,101613.06
2022-08-31T06:43:20.016Z,101608.94
2022-08-31T06:45:58.272Z,101620.38
2022-08-31T06:49:01.845Z,101613.81
2022-08-31T06:51:36.425Z,101616.78
2022-08-31T06:54:27.507Z,101615.44
2022-08-31T06:57:25.148Z,101617.53
2022-08-31T07:00:13.748Z,101626.59
2022-08-31T07:02:52.975Z,101631.69
2022-08-31T07:05:25.733Z,101631.03
2022-08-31T07:07:55.091Z,101636.09
2022-08-31T07:10:23.291Z,101634.72
2022-08-31T07:12:51.262Z,101641.38
2022-08-31T07:15:20.695Z,101648.84
2022-08-31T07:17:49.807Z,101646.44
2022-08-31T07:20:17.907Z,101643.19
2022-08-31T07:22:46.231Z,101643.66
2022-08-31T07:25:49.547Z,101650.78
2022-08-31T07:28:18.084Z,101644.00
2022-08-31T07:30:50.223Z,101648.97
2022-08-31T07:33:19.478Z,101645.06
2022-08-31T07:35:53.194Z,101647.47
2022-08-31T07:38:50.206Z,101648.03
2022-08-31T07:41:50.598Z,101649.19
2022-08-31T07:44:20.218Z,101655.53
2022-08-31T07:46:53.003Z,101648.63
2022-08-31T07:49:23.102Z,101653.66
2022-08-31T07:52:00.136Z,101655.06
2022-08-31T07:54:46.748Z,101651.03
2022-08-31T07:57:31.191Z,101662.69
2022-08-31T08:00:08.090Z,101660.75
2022-08-31T08:02:50.797Z,101663.56
2022-08-31T08:05:27.521Z,101657.97
2022-08-31T08:08:15.810Z,101668.31
2022-08-31T08:11:10.245Z,101666.03
2022-08-31T08:13:46.540Z,101669.00
2022-08-31T08:16:20.761Z,101672.84
2022-08-31T08:19:09.151Z,101674.56
2022-08-31T08:21:37.944Z,101670.91
2022-08-31T08:24:07.620Z,101660.47
2022-08-31T08:26:55.255Z,101668.81
2022-08-31T08:29:34.129Z,101660.84
2022-08-31T08:32:04.479Z,101666.69
2022-08-31T08:34:34.276Z,101657.13
2022-08-31T08:37:03.785Z,101674.81
2022-08-31T08:39:31.822Z,101668.31
2022-08-31T08:42:09.604Z,101665.44
2022-08-31T08:44:39.008Z,101670.06
2022-08-31T08:47:15.210Z,101679.03
2022-08-31T08:49:54.742Z,101673.00
2022-08-31T08:52:29.021Z,101675.88
2022-08-31T08:55:03.111Z,101679.03
2022-08-31T08:57:34.666Z,101676.47
2022-08-31T09:00:10.971Z,101682.50
2022-08-31T09:02:48.086Z,101677.84
2022-08-31T09:05:35.157Z,101676.53
2022-08-31T09:09:08.692Z,101680.38
2022-08-31T09:11:52.645Z,101674.38
2022-08-31T09:14:36.567Z,101669.34
2022-08-31T09:17:16.356Z,101676.16
2022-08-31T09:20:00.440Z,101674.78
2022-08-31T09:22:34.097Z,101673.75
2022-08-31T09:25:03.659Z,101666.03
2022-08-31T09:28:00.839Z,101675.13
2022-08-31T09:30:51.626Z,101668.03
2022-08-31T09:33:21.438Z,101673.22
2022-08-31T09:35:56.691Z,101660.56
2022-08-31T09:38:30.865Z,101666.59
2022-08-31T09:40:59.233Z,101664.91
2022-08-31T09:43:37.598Z,101668.75
2022-08-31T09:46:10.170Z,101656.97
2022-08-31T09:48:51.438Z,101670.63
2022-08-31T09:51:25.645Z,101662.28
2022-08-31T09:54:17.227Z,101657.63
2022-08-31T09:56:56.223Z,101660.25
2022-08-31T09:59:36.439Z,101664.81
2022-08-31T10:02:09.902Z,101666.84
2022-08-31T10:04:51.812Z,101654.34
2022-08-31T10:07:37.683Z,101654.41
2022-08-31T10:10:27.885Z,101650.13
2022-08-31T10:13:03.743Z,101643.94
2022-08-31T10:15:41.329Z,101653.44
2022-08-31T10:18:13.804Z,101647.03
2022-08-31T10:20:49.518Z,101643.63
2022-08-31T10:23:27.451Z,101644.31
2022-08-31T10:26:03.047Z,101646.06
2022-08-31T10:28:36.823Z,101640.69
2022-08-31T10:31:13.873Z,101639.63
2022-08-31T10:34:05.856Z,101640.31
2022-08-31T10:36:40.886Z,101640.16
2022-08-31T10:39:20.842Z,101645.16
2022-08-31T10:41:51.912Z,101638.50
2022-08-31T10:44:27.057Z,101640.44
2022-08-31T10:46:58.583Z,101641.31
2022-08-31T10:49:28.325Z,101639.16
2022-08-31T10:52:03.550Z,101636.16
2022-08-31T10:54:43.241Z,101635.09
2022-08-31T10:57:32.167Z,101637.44
2022-08-31T11:00:07.890Z,101640.25
2022-08-31T11:02:58.757Z,101640.91
2022-08-31T11:05:35.441Z,101646.09
2022-08-31T11:08:23.995Z,101644.56
2022-08-31T11:10:54.550Z,101640.47
2022-08-31T11:13:49.575Z,101639.59
2022-08-31T11:16:33.708Z,101641.09
2022-08-31T11:19:36.237Z,101637.44
2022-08-31T11:22:53.538Z,101645.78
2022-08-31T11:25:47.549Z,101640.84
2022-08-31T11:28:29.033Z,101636.72
2022-08-31T11:31:01.566Z,101638.22
2022-08-31T11:33:31.262Z,101635.59
2022-08-31T11:36:07.379Z,101638.41
2022-08-31T11:38:50.139Z,101633.84
2022-08-31T11:41:41.390Z,101630.84
2022-08-31T11:44:11.770Z,101632.56
2022-08-31T11:47:05.773Z,101622.38
2022-08-31T11:49:46.265Z,101624.38
2022-08-31T11:52:29.521Z,101623.91
2022-08-31T11:55:13.884Z,101619.16
2022-08-31T11:58:20.739Z,101622.56
2022-08-31T12:01:30.696Z,101615.00
2022-08-31T12:04:03.878Z,101624.47
2022-08-31T12:07:09.087Z,101619.13
2022-08-31T12:10:04.533Z,101617.78
2022-08-31T12:13:07.449Z,101611.13
2022-08-31T12:15:53.121Z,101606.41
2022-08-31T12:18:39.494Z,101608.13
2022-08-31T12:21:33.191Z,101610.72
2022-08-31T12:24:18.810Z,101607.25
2022-08-31T12:27:17.106Z,101610.25
2022-08-31T12:29:45.544Z,101607.88
2022-08-31T12:32:22.809Z,101607.94
2022-08-31T12:34:57.966Z,101605.31
2022-08-31T12:37:29.761Z,101595.88
2022-08-31T12:40:22.547Z,101598.59
2022-08-31T12:42:57.583Z,101599.47
2022-08-31T12:45:45.139Z,101605.94
2022-08-31T12:48:26.194Z,101596.69
2022-08-31T12:51:01.930Z,101597.97
2022-08-31T12:53:55.363Z,101598.38
2022-08-31T12:56:31.106Z,101600.31
2022-08-31T12:59:15.886Z,101593.00
2022-08-31T13:01:48.853Z,101592.31
2022-08-31T13:04:19.859Z,101595.56
2022-08-31T13:06:49.155Z,101594.69
2022-08-31T13:09:32.055Z,101592.75
2022-08-31T13:12:02.688Z,101592.47
2022-08-31T13:14:39.583Z,101595.50
2022-08-31T13:17:15.052Z,101593.78
2022-08-31T13:19:50.416Z,101588.38
2022-08-31T13:22:28.603Z,101579.28
2022-08-31T13:25:12.016Z,101577.75
2022-08-31T13:27:48.778Z,101580.75
2022-08-31T13:30:20.505Z,101582.94
2022-08-31T13:32:51.163Z,101583.13
2022-08-31T13:35:22.383Z,101581.41
2022-08-31T13:38:03.879Z,101577.75
2022-08-31T13:40:39.442Z,101574.72
2022-08-31T13:43:10.671Z,101572.13
2022-08-31T13:45:50.489Z,101573.22
2022-08-31T13:48:27.164Z,101568.47
2022-08-31T13:51:02.192Z,101564.63
2022-08-31T13:53:43.035Z,101577.34
2022-08-31T13:56:55.963Z,101577.06
2022-08-31T13:59:29.508Z,101561.41
2022-08-31T14:01:59.895Z,101565.88
2022-08-31T14:04:46.502Z,101568.72
2022-08-31T14:07:21.533Z,101563.94
2022-08-31T14:09:52.416Z,101574.06
2022-08-31T14:12:34.921Z,101571.28
2022-08-31T14:15:18.587Z,101567.41
2022-08-31T14:21:09.971Z,101563.06
2022-08-31T14:23:36.163Z,101559.66
2022-08-31T14:26:07.486Z,101557.97
2022-08-31T14:28:46.861Z,101551.72
2022-08-31T14:31:24.538Z,101548.31
2022-08-31T14:34:04.207Z,101549.41
2022-08-31T14:36:35.582Z,101546.66
2022-08-31T14:39:03.880Z,101540.88
2022-08-31T14:41:33.831Z,101543.28
2022-08-31T14:44:10.319Z,101537.72
2022-08-31T14:46:40.304Z,101533.84
2022-08-31T14:49:08.737Z,101530.84
2022-08-31T14:51:39.208Z,101533.84
2022-08-31T14:54:09.015Z,101531.72
2022-08-31T14:56:48.046Z,101528.25
2022-08-31T14:59:21.827Z,101531.72
2022-08-31T15:01:53.253Z,101530.66
2022-08-31T15:04:22.765Z,101525.28
2022-08-31T15:06:55.141Z,101539.50
2022-08-31T15:09:23.790Z,101533.72
2022-08-31T15:11:52.244Z,101527.88
2022-08-31T15:14:22.399Z,101533.72
2022-08-31T15:16:51.369Z,101530.91
2022-08-31T15:19:19.682Z,101531.78
2022-08-31T15:21:58.710Z,101528.31
2022-08-31T15:24:31.349Z,101531.13
2022-08-31T15:27:00.020Z,101529.19
2022-08-31T15:29:30.478Z,101526.19
2022-08-31T15:31:59.805Z,101528.72
2022-08-31T15:34:31.149Z,101527.66
2022-08-31T15:37:02.394Z,101528.06
2022-08-31T15:39:35.017Z,101533.00
2022-08-31T15:42:05.038Z,101525.91
2022-08-31T15:44:35.304Z,101518.78
2022-08-31T15:47:21.601Z,101520.94
2022-08-31T15:49:51.136Z,101521.13
2022-08-31T15:52:20.114Z,101514.25
2022-08-31T15:54:49.493Z,101516.38
2022-08-31T15:57:17.599Z,101510.78
2022-08-31T15:59:50.106Z,101512.72
2022-08-31T16:02:20.504Z,101508.84
2022-08-31T16:04:50.757Z,101514.84
2022-08-31T16:07:19.025Z,101504.69
2022-08-31T16:09:47.367Z,101503.25
2022-08-31T16:12:16.633Z,101507.25
2022-08-31T16:14:45.559Z,101507.91
2022-08-31T16:17:19.375Z,101502.09
2022-08-31T16:19:47.432Z,101495.41
2022-08-31T16:22:16.226Z,101502.94
2022-08-31T16:24:44.837Z,101492.38
2022-08-31T16:27:16.441Z,101499.06
2022-08-31T16:29:45.710Z,101491.94
2022-08-31T16:32:15.121Z,101496.69
2022-08-31T16:34:43.313Z,101495.38
2022-08-31T16:37:11.601Z,101494.53
2022-08-31T16:39:42.069Z,101498.84
2022-08-31T16:42:13.034Z,101497.53
2022-08-31T16:44:43.798Z,101495.38
2022-08-31T16:47:12.781Z,101492.78
2022-08-31T16:49:43.503Z,101493.63
2022-08-31T16:52:13.618Z,101494.50
2022-08-31T16:54:44.947Z,101494.91
2022-08-31T16:57:15.000Z,101504.13
2022-08-31T16:59:43.766Z,101497.28
2022-08-31T17:02:13.551Z,101502.00
2022-08-31T17:04:53.310Z,101503.94
2022-08-31T17:07:23.567Z,101505.00
2022-08-31T17:09:52.429Z,101502.41
2022-08-31T17:12:21.479Z,101508.41
2022-08-31T17:14:52.540Z,101505.59
2022-08-31T17:17:22.455Z,101504.09
2022-08-31T17:19:53.412Z,101503.44
2022-08-31T17:22:31.789Z,101504.72
2022-08-31T17:25:03.107Z,101503.22
2022-08-31T17:27:33.477Z,101511.59
2022-08-31T17:30:05.441Z,101508.81
2022-08-31T17:32:36.509Z,101507.00
2022-08-31T17:35:11.223Z,101510.28
2022-08-31T17:37:41.159Z,101514.78
2022-08-31T17:40:14.363Z,101516.69
2022-08-31T17:42:42.603Z,101516.03
2022-08-31T17:45:11.758Z,101520.97
2022-08-31T17:47:40.098Z,101522.41
2022-08-31T17:50:10.421Z,101527.16
2022-08-31T17:52:39.050Z,101518.72
2022-08-31T17:55:07.965Z,101522.97
2022-08-31T17:57:36.285Z,101522.06
2022-08-31T18:00:05.591Z,101517.56
2022-08-31T18:02:37.776Z,101518.19
2022-08-31T18:05:11.615Z,101530.38
2022-08-31T18:07:41.769Z,101522.59
2022-08-31T18:10:11.494Z,101535.25
2022-08-31T18:12:41.901Z,101530.44
2022-08-31T18:15:11.987Z,101538.19
2022-08-31T18:17:40.548Z,101545.41
2022-08-31T18:20:10.779Z,101544.47
2022-08-31T18:22:39.862Z,101548.25
2022-08-31T18:25:10.312Z,101543.47
2022-08-31T18:27:38.589Z,101561.41
2022-08-31T18:30:07.973Z,101552.38
2022-08-31T18:32:36.819Z,101556.84
2022-08-31T18:35:14.187Z,101563.22
2022-08-31T18:37:42.454Z,101558.63
2022-08-31T18:40:29.676Z,101562.06
2022-08-31T18:43:15.284Z,101557.28
2022-08-31T18:45:48.046Z,101569.22
2022-08-31T18:48:32.113Z,101565.75
2022-08-31T18:51:03.119Z,101579.19
2022-08-31T18:53:32.910Z,101575.53
2022-08-31T18:56:08.343Z,101578.53
2022-08-31T18:58:37.089Z,101586.81
2022-08-31T19:01:05.909Z,101580.78
2022-08-31T19:03:34.081Z,101585.66
2022-08-31T19:06:02.216Z,101593.34
2022-08-31T19:08:33.568Z,101588.00
2022-08-31T19:11:07.089Z,101590.69
2022-08-31T19:13:35.237Z,101588.28
2022-08-31T19:16:14.749Z,101584.16
2022-08-31T19:18:44.889Z,101592.06
2022-08-31T19:21:15.435Z,101591.38
2022-08-31T19:23:44.103Z,101591.94
2022-08-31T19:26:19.610Z,101602.81
2022-08-31T19:28:48.895Z,101598.69
2022-08-31T19:31:18.835Z,101602.34
2022-08-31T19:33:47.431Z,101596.97
2022-08-31T19:36:15.847Z,101598.00
2022-08-31T19:38:47.531Z,101594.53
2022-08-31T19:41:19.537Z,101594.53
2022-08-31T19:43:54.948Z,101594.59
2022-08-31T19:46:33.414Z,101602.09
2022-08-31T19:49:02.587Z,101602.28
2022-08-31T19:51:31.620Z,101597.09
2022-08-31T19:54:01.269Z,101601.81
2022-08-31T19:56:31.634Z,101597.97
2022-08-31T19:59:00.791Z,101603.91
2022-08-31T20:01:34.070Z,101600.25
2022-08-31T20:04:07.569Z,101604.69
2022-08-31T20:06:35.626Z,101603.13
2022-08-31T20:09:05.570Z,101610.44
2022-08-31T20:11:37.018Z,101611.31
2022-08-31T20:14:05.569Z,101609.28
2022-08-31T20:16:36.320Z,101608.03
2022-08-31T20:19:05.981Z,101604.09
2022-08-31T20:21:35.618Z,101607.06
2022-08-31T20:24:06.583Z,101608.28
2022-08-31T20:26:47.376Z,101608.69
2022-08-31T20:29:21.464Z,101607.50
2022-08-31T20:31:51.408Z,101611.38
2022-08-31T20:34:22.163Z,101608.75
2022-08-31T20:36:59.934Z,101611.91
2022-08-31T20:39:31.418Z,101606.75
2022-08-31T20:42:03.444Z,101607.09
2022-08-31T20:44:48.887Z,101602.75
2022-08-31T20:47:35.099Z,101602.66
2022-08-31T20:50:07.235Z,101603.53
2022-08-31T20:52:36.462Z,101599.88
2022-08-31T20:55:07.440Z,101608.72
2022-08-31T20:57:40.407Z,101611.88
2022-08-31T21:00:10.723Z,101615.72
2022-08-31T21:02:39.867Z,101614.38
2022-08-31T21:05:37.040Z,101615.41
2022-08-31T21:07:58.457Z,101611.91
2022-08-31T21:10:37.054Z,101611.91
2022-08-31T21:13:10.318Z,101602.50
2022-08-31T21:15:42.934Z,101604.59
2022-08-31T21:18:11.218Z,101603.75
2022-08-31T21:20:39.295Z,101604.78
2022-08-31T21:23:10.408Z,101606.06
2022-08-31T21:25:43.809Z,101606.69
2022-08-31T21:28:17.021Z,101592.66
2022-08-31T21:30:47.075Z,101598.59
2022-08-31T21:33:16.630Z,101609.06
2022-08-31T21:35:44.627Z,101607.69
2022-08-31T21:38:13.344Z,101611.75
2022-08-31T21:40:48.537Z,101617.31
2022-08-31T21:43:18.253Z,101618.88
2022-08-31T21:45:46.813Z,101610.41
2022-08-31T21:48:14.918Z,101615.28
2022-08-31T21:50:42.923Z,101609.25
2022-08-31T21:53:11.829Z,101616.91
2022-08-31T21:55:39.830Z,101607.88
2022-08-31T21:58:07.839Z,101605.47
2022-08-31T22:00:42.079Z,101603.53
2022-08-31T22:03:10.415Z,101603.03
2022-08-31T22:05:39.632Z,101606.88
2022-08-31T22:08:10.294Z,101610.22
2022-08-31T22:10:41.043Z,101603.78
2022-08-31T22:13:11.496Z,101606.22
2022-08-31T22:15:41.169Z,101612.84
2022-08-31T22:18:46.433Z,101610.44
2022-08-31T22:20:58.948Z,101605.38
2022-08-31T22:23:27.341Z,101613.06
2022-08-31T22:25:55.344Z,101610.44
2022-08-31T22:28:27.677Z,101608.88
2022-08-31T22:30:57.149Z,101608.84
2022-08-31T22:33:25.150Z,101613.63
2022-08-31T22:35:53.363Z,101619.00
2022-08-31T22:38:21.372Z,101619.34
2022-08-31T22:40:50.948Z,101613.31
2022-08-31T22:43:19.070Z,101615.41
2022-08-31T22:45:48.857Z,101620.97
2022-08-31T22:48:18.579Z,101614.88
2022-08-31T22:50:46.840Z,101614.56
2022-08-31T22:53:14.872Z,101615.59
2022-08-31T22:55:43.111Z,101615.94
2022-08-31T22:58:12.500Z,101608.00
2022-08-31T23:00:41.534Z,101613.72
2022-08-31T23:03:14.865Z,101608.72
2022-08-31T23:05:45.114Z,101613.56
2022-08-31T23:08:13.982Z,101610.44
2022-08-31T23:10:44.224Z,101613.78
2022-08-31T23:13:12.165Z,101611.72
2022-08-31T23:15:40.946Z,101605.78
2022-08-31T23:18:10.655Z,101609.97
2022-08-31T23:20:41.757Z,101605.78
2022-08-31T23:23:11.392Z,101606.16
2022-08-31T23:25:40.457Z,101602.88
2022-08-31T23:28:08.692Z,101598.72
2022-08-31T23:30:37.839Z,101608.25
2022-08-31T23:33:05.881Z,101602.19
2022-08-31T23:35:34.682Z,101594.38
2022-08-31T23:38:02.927Z,101602.88
2022-08-31T23:40:34.007Z,101603.75
2022-08-31T23:43:02.165Z,101604.09
2022-08-31T23:45:30.047Z,101595.97
2022-08-31T23:47:58.007Z,101597.19
2022-08-31T23:50:26.057Z,101599.97
2022-08-31T23:52:54.024Z,101598.22
2022-08-31T23:55:28.574Z,101594.56
2022-08-31T23:57:59.355Z,101595.28
